sensor_id;sensor_type;location;lat;lon;timestamp;pressure;altitude;pressure_sealevel;temperature;humidity
57594;BME280;43423;46.510;6.686;2023-04-06T00:01:27;96625.81;;;5.38;45.94
57594;BME280;43423;46.510;6.686;2023-04-06T00:03:52;96623.63;;;5.32;46.57
57594;BME280;43423;46.510;6.686;2023-04-06T00:06:18;96627.56;;;5.31;46.32
57594;BME280;43423;46.510;6.686;2023-04-06T00:08:44;96622.53;;;5.30;46.34
57594;BME280;43423;46.510;6.686;2023-04-06T00:11:10;96622.19;;;5.28;46.66
57594;BME280;43423;46.510;6.686;2023-04-06T00:13:35;96628.53;;;5.38;45.73
57594;BME280;43423;46.510;6.686;2023-04-06T00:16:01;96624.59;;;5.39;45.96
57594;BME280;43423;46.510;6.686;2023-04-06T00:18:26;96624.06;;;5.31;45.79
57594;BME280;43423;46.510;6.686;2023-04-06T00:20:52;96622.53;;;5.30;45.86
57594;BME280;43423;46.510;6.686;2023-04-06T00:23:18;96618.47;;;5.35;45.89
57594;BME280;43423;46.510;6.686;2023-04-06T00:25:43;96619.91;;;5.26;45.75
57594;BME280;43423;46.510;6.686;2023-04-06T00:28:09;96622.31;;;5.24;46.36
57594;BME280;43423;46.510;6.686;2023-04-06T00:30:35;96614.59;;;5.23;46.33
57594;BME280;43423;46.510;6.686;2023-04-06T00:33:00;96620.38;;;5.25;46.24
57594;BME280;43423;46.510;6.686;2023-04-06T00:35:26;96612.31;;;5.21;46.44
57594;BME280;43423;46.510;6.686;2023-04-06T00:37:51;96605.97;;;5.24;46.33
57594;BME280;43423;46.510;6.686;2023-04-06T00:40:17;96606.41;;;5.23;46.69
57594;BME280;43423;46.510;6.686;2023-04-06T00:42:43;96611.22;;;5.19;46.05
57594;BME280;43423;46.510;6.686;2023-04-06T00:45:09;96596.81;;;5.18;46.58
57594;BME280;43423;46.510;6.686;2023-04-06T00:47:35;96602.25;;;5.18;46.26
57594;BME280;43423;46.510;6.686;2023-04-06T00:50:01;96607.81;;;5.27;45.82
57594;BME280;43423;46.510;6.686;2023-04-06T00:52:26;96611.66;;;5.17;46.64
57594;BME280;43423;46.510;6.686;2023-04-06T00:54:52;96609.91;;;5.11;46.82
57594;BME280;43423;46.510;6.686;2023-04-06T00:57:17;96606.19;;;5.17;46.58
57594;BME280;43423;46.510;6.686;2023-04-06T00:59:44;96606.31;;;5.14;46.68
57594;BME280;43423;46.510;6.686;2023-04-06T01:02:10;96600.53;;;5.12;46.17
57594;BME280;43423;46.510;6.686;2023-04-06T01:04:35;96599.22;;;5.16;46.66
57594;BME280;43423;46.510;6.686;2023-04-06T01:07:01;96594.97;;;5.15;46.33
57594;BME280;43423;46.510;6.686;2023-04-06T01:09:28;96584.94;;;5.12;46.91
57594;BME280;43423;46.510;6.686;2023-04-06T01:11:58;96583.72;;;5.13;47.12
57594;BME280;43423;46.510;6.686;2023-04-06T01:14:24;96582.34;;;5.09;46.33
57594;BME280;43423;46.510;6.686;2023-04-06T01:16:51;96578.41;;;5.10;46.62
57594;BME280;43423;46.510;6.686;2023-04-06T01:19:17;96571.53;;;5.05;46.90
57594;BME280;43423;46.510;6.686;2023-04-06T01:21:43;96576.75;;;5.12;46.47
57594;BME280;43423;46.510;6.686;2023-04-06T01:24:09;96564.78;;;4.97;46.75
57594;BME280;43423;46.510;6.686;2023-04-06T01:26:35;96560.91;;;4.98;46.76
57594;BME280;43423;46.510;6.686;2023-04-06T01:29:02;96566.44;;;4.94;47.14
57594;BME280;43423;46.510;6.686;2023-04-06T01:31:28;96569.69;;;5.02;46.90
57594;BME280;43423;46.510;6.686;2023-04-06T01:33:53;96569.16;;;5.07;46.06
57594;BME280;43423;46.510;6.686;2023-04-06T01:36:19;96563.34;;;5.05;46.49
57594;BME280;43423;46.510;6.686;2023-04-06T01:38:45;96564.91;;;5.06;46.39
57594;BME280;43423;46.510;6.686;2023-04-06T01:41:10;96568.19;;;5.01;46.33
57594;BME280;43423;46.510;6.686;2023-04-06T01:43:36;96570.91;;;5.01;46.53
57594;BME280;43423;46.510;6.686;2023-04-06T01:46:02;96569.91;;;4.95;46.85
57594;BME280;43423;46.510;6.686;2023-04-06T01:48:28;96566.34;;;4.98;46.54
57594;BME280;43423;46.510;6.686;2023-04-06T01:50:54;96567.97;;;4.95;47.31
57594;BME280;43423;46.510;6.686;2023-04-06T01:53:20;96556.63;;;4.97;47.00
57594;BME280;43423;46.510;6.686;2023-04-06T01:55:45;96555.44;;;4.98;47.06
57594;BME280;43423;46.510;6.686;2023-04-06T01:58:11;96556.53;;;4.88;47.48
57594;BME280;43423;46.510;6.686;2023-04-06T02:00:37;96556.66;;;4.84;47.39
57594;BME280;43423;46.510;6.686;2023-04-06T02:03:03;96561.25;;;4.62;48.22
57594;BME280;43423;46.510;6.686;2023-04-06T02:05:30;96567.22;;;4.44;49.05
57594;BME280;43423;46.510;6.686;2023-04-06T02:07:57;96563.50;;;4.25;50.65
57594;BME280;43423;46.510;6.686;2023-04-06T02:10:22;96560.56;;;4.19;51.08
57594;BME280;43423;46.510;6.686;2023-04-06T02:12:49;96564.91;;;4.17;51.62
57594;BME280;43423;46.510;6.686;2023-04-06T02:15:15;96566.09;;;4.16;50.58
57594;BME280;43423;46.510;6.686;2023-04-06T02:17:41;96563.81;;;4.14;50.37
57594;BME280;43423;46.510;6.686;2023-04-06T02:20:07;96557.50;;;4.05;50.56
57594;BME280;43423;46.510;6.686;2023-04-06T02:22:37;96558.13;;;3.96;50.91
57594;BME280;43423;46.510;6.686;2023-04-06T02:25:02;96564.19;;;3.87;51.85
57594;BME280;43423;46.510;6.686;2023-04-06T02:27:28;96567.88;;;3.81;51.52
57594;BME280;43423;46.510;6.686;2023-04-06T02:29:53;96567.75;;;3.72;52.46
57594;BME280;43423;46.510;6.686;2023-04-06T02:32:19;96565.09;;;3.68;51.95
57594;BME280;43423;46.510;6.686;2023-04-06T02:34:45;96565.34;;;3.74;52.74
57594;BME280;43423;46.510;6.686;2023-04-06T02:37:10;96562.31;;;3.72;53.01
57594;BME280;43423;46.510;6.686;2023-04-06T02:39:36;96562.19;;;3.75;52.08
57594;BME280;43423;46.510;6.686;2023-04-06T02:42:02;96550.03;;;3.80;52.69
57594;BME280;43423;46.510;6.686;2023-04-06T02:44:27;96552.00;;;3.79;52.85
57594;BME280;43423;46.510;6.686;2023-04-06T02:46:53;96556.66;;;3.79;53.95
57594;BME280;43423;46.510;6.686;2023-04-06T02:49:18;96556.88;;;3.72;53.73
57594;BME280;43423;46.510;6.686;2023-04-06T02:51:44;96559.84;;;3.61;54.31
57594;BME280;43423;46.510;6.686;2023-04-06T02:54:09;96559.59;;;3.55;54.65
57594;BME280;43423;46.510;6.686;2023-04-06T02:56:35;96558.63;;;3.49;54.07
57594;BME280;43423;46.510;6.686;2023-04-06T02:59:00;96551.31;;;3.46;53.53
57594;BME280;43423;46.510;6.686;2023-04-06T03:01:26;96552.75;;;3.51;54.12
57594;BME280;43423;46.510;6.686;2023-04-06T03:03:51;96559.81;;;3.48;54.37
57594;BME280;43423;46.510;6.686;2023-04-06T03:06:17;96559.81;;;3.48;54.59
57594;BME280;43423;46.510;6.686;2023-04-06T03:08:43;96555.22;;;3.45;56.52
57594;BME280;43423;46.510;6.686;2023-04-06T03:11:08;96564.31;;;3.39;56.44
57594;BME280;43423;46.510;6.686;2023-04-06T03:13:34;96557.81;;;3.36;56.53
57594;BME280;43423;46.510;6.686;2023-04-06T03:15:59;96560.19;;;3.34;56.99
57594;BME280;43423;46.510;6.686;2023-04-06T03:18:25;96557.03;;;3.35;57.30
57594;BME280;43423;46.510;6.686;2023-04-06T03:20:51;96558.66;;;3.33;56.77
57594;BME280;43423;46.510;6.686;2023-04-06T03:23:19;96556.03;;;3.29;57.32
57594;BME280;43423;46.510;6.686;2023-04-06T03:25:46;96556.47;;;3.28;56.74
57594;BME280;43423;46.510;6.686;2023-04-06T03:28:12;96555.38;;;3.25;58.52
57594;BME280;43423;46.510;6.686;2023-04-06T03:30:37;96559.59;;;3.26;57.86
57594;BME280;43423;46.510;6.686;2023-04-06T03:33:03;96554.34;;;3.19;57.51
57594;BME280;43423;46.510;6.686;2023-04-06T03:35:29;96556.63;;;3.21;57.52
57594;BME280;43423;46.510;6.686;2023-04-06T03:37:54;96560.13;;;3.21;57.77
57594;BME280;43423;46.510;6.686;2023-04-06T03:40:20;96557.94;;;3.16;58.40
57594;BME280;43423;46.510;6.686;2023-04-06T03:42:46;96569.13;;;3.18;58.26
57594;BME280;43423;46.510;6.686;2023-04-06T03:45:11;96571.53;;;3.16;58.69
57594;BME280;43423;46.510;6.686;2023-04-06T03:47:39;96567.69;;;3.14;59.04
57594;BME280;43423;46.510;6.686;2023-04-06T03:50:05;96567.78;;;3.10;59.74
57594;BME280;43423;46.510;6.686;2023-04-06T03:52:31;96572.78;;;3.12;59.93
57594;BME280;43423;46.510;6.686;2023-04-06T03:54:57;96579.75;;;3.13;59.94
57594;BME280;43423;46.510;6.686;2023-04-06T03:57:22;96579.41;;;3.11;58.77
57594;BME280;43423;46.510;6.686;2023-04-06T03:59:48;96579.50;;;3.07;59.89
57594;BME280;43423;46.510;6.686;2023-04-06T04:02:13;96574.75;;;3.11;59.83
57594;BME280;43423;46.510;6.686;2023-04-06T04:04:39;96579.84;;;3.09;59.14
57594;BME280;43423;46.510;6.686;2023-04-06T04:07:04;96584.16;;;3.06;60.59
57594;BME280;43423;46.510;6.686;2023-04-06T04:09:30;96585.94;;;2.97;61.03
57594;BME280;43423;46.510;6.686;2023-04-06T04:11:56;96597.66;;;2.94;61.64
57594;BME280;43423;46.510;6.686;2023-04-06T04:14:21;96593.00;;;2.94;62.18
57594;BME280;43423;46.510;6.686;2023-04-06T04:16:47;96593.66;;;2.98;61.12
57594;BME280;43423;46.510;6.686;2023-04-06T04:19:13;96598.78;;;2.96;61.47
57594;BME280;43423;46.510;6.686;2023-04-06T04:21:43;96595.03;;;2.90;61.83
57594;BME280;43423;46.510;6.686;2023-04-06T04:24:10;96596.22;;;2.89;61.11
57594;BME280;43423;46.510;6.686;2023-04-06T04:26:36;96603.50;;;2.92;61.79
57594;BME280;43423;46.510;6.686;2023-04-06T04:29:01;96603.19;;;2.90;61.79
57594;BME280;43423;46.510;6.686;2023-04-06T04:31:27;96604.03;;;2.87;62.10
57594;BME280;43423;46.510;6.686;2023-04-06T04:33:52;96599.25;;;2.91;62.02
57594;BME280;43423;46.510;6.686;2023-04-06T04:36:18;96601.66;;;2.89;62.25
57594;BME280;43423;46.510;6.686;2023-04-06T04:38:44;96600.78;;;2.92;61.69
57594;BME280;43423;46.510;6.686;2023-04-06T04:41:09;96605.81;;;2.94;62.34
57594;BME280;43423;46.510;6.686;2023-04-06T04:43:35;96598.88;;;2.93;62.61
57594;BME280;43423;46.510;6.686;2023-04-06T04:46:00;96601.97;;;2.91;61.93
57594;BME280;43423;46.510;6.686;2023-04-06T04:48:26;96596.22;;;2.89;61.98
57594;BME280;43423;46.510;6.686;2023-04-06T04:50:51;96604.69;;;2.91;62.57
57594;BME280;43423;46.510;6.686;2023-04-06T04:53:17;96609.72;;;2.93;62.78
57594;BME280;43423;46.510;6.686;2023-04-06T04:55:42;96603.28;;;2.87;63.54
57594;BME280;43423;46.510;6.686;2023-04-06T04:58:08;96606.06;;;2.83;64.06
57594;BME280;43423;46.510;6.686;2023-04-06T05:00:36;96606.75;;;2.71;64.37
57594;BME280;43423;46.510;6.686;2023-04-06T05:03:03;96616.69;;;2.77;63.38
57594;BME280;43423;46.510;6.686;2023-04-06T05:05:30;96619.88;;;2.72;63.58
57594;BME280;43423;46.510;6.686;2023-04-06T05:07:56;96616.41;;;2.72;64.54
57594;BME280;43423;46.510;6.686;2023-04-06T05:10:21;96622.16;;;2.74;65.15
57594;BME280;43423;46.510;6.686;2023-04-06T05:12:47;96623.69;;;2.75;65.02
57594;BME280;43423;46.510;6.686;2023-04-06T05:15:12;96626.78;;;2.77;65.15
57594;BME280;43423;46.510;6.686;2023-04-06T05:17:38;96628.31;;;2.78;65.61
57594;BME280;43423;46.510;6.686;2023-04-06T05:20:05;96620.81;;;2.82;65.30
57594;BME280;43423;46.510;6.686;2023-04-06T05:22:30;96625.91;;;2.80;65.37
57594;BME280;43423;46.510;6.686;2023-04-06T05:24:56;96629.72;;;2.83;63.40
57594;BME280;43423;46.510;6.686;2023-04-06T05:27:22;96634.41;;;2.82;64.04
57594;BME280;43423;46.510;6.686;2023-04-06T05:29:47;96640.44;;;2.90;66.62
57594;BME280;43423;46.510;6.686;2023-04-06T05:32:13;96636.47;;;2.94;65.63
57594;BME280;43423;46.510;6.686;2023-04-06T05:34:38;96637.13;;;2.98;65.37
57594;BME280;43423;46.510;6.686;2023-04-06T05:37:04;96636.69;;;3.00;64.02
57594;BME280;43423;46.510;6.686;2023-04-06T05:39:30;96645.13;;;3.05;64.75
57594;BME280;43423;46.510;6.686;2023-04-06T05:41:56;96635.44;;;3.04;65.52
57594;BME280;43423;46.510;6.686;2023-04-06T05:44:21;96637.13;;;3.15;63.48
57594;BME280;43423;46.510;6.686;2023-04-06T05:46:47;96631.63;;;3.18;63.54
57594;BME280;43423;46.510;6.686;2023-04-06T05:49:12;96640.78;;;3.41;61.99
57594;BME280;43423;46.510;6.686;2023-04-06T05:51:38;96639.09;;;3.76;61.56
57594;BME280;43423;46.510;6.686;2023-04-06T05:54:03;96624.97;;;4.10;60.26
57594;BME280;43423;46.510;6.686;2023-04-06T05:56:29;96628.72;;;4.29;59.81
57594;BME280;43423;46.510;6.686;2023-04-06T05:58:57;96638.22;;;4.37;59.56
57594;BME280;43423;46.510;6.686;2023-04-06T06:01:22;96634.75;;;4.49;58.53
57594;BME280;43423;46.510;6.686;2023-04-06T06:03:48;96645.22;;;4.63;58.26
57594;BME280;43423;46.510;6.686;2023-04-06T06:06:13;96643.50;;;4.82;58.67
57594;BME280;43423;46.510;6.686;2023-04-06T06:08:39;96646.19;;;5.20;57.79
57594;BME280;43423;46.510;6.686;2023-04-06T06:11:04;96638.53;;;5.41;57.26
57594;BME280;43423;46.510;6.686;2023-04-06T06:13:30;96640.06;;;5.54;56.63
57594;BME280;43423;46.510;6.686;2023-04-06T06:15:57;96639.38;;;5.50;57.28
57594;BME280;43423;46.510;6.686;2023-04-06T06:18:22;96650.03;;;5.70;57.25
57594;BME280;43423;46.510;6.686;2023-04-06T06:20:48;96653.53;;;5.71;56.78
57594;BME280;43423;46.510;6.686;2023-04-06T06:23:13;96654.78;;;5.92;56.80
57594;BME280;43423;46.510;6.686;2023-04-06T06:25:39;96657.94;;;6.25;57.02
57594;BME280;43423;46.510;6.686;2023-04-06T06:28:05;96655.28;;;6.34;54.95
57594;BME280;43423;46.510;6.686;2023-04-06T06:30:30;96661.31;;;6.82;53.60
57594;BME280;43423;46.510;6.686;2023-04-06T06:32:56;96664.31;;;7.06;53.37
57594;BME280;43423;46.510;6.686;2023-04-06T06:35:22;96667.44;;;7.35;52.87
57594;BME280;43423;46.510;6.686;2023-04-06T06:37:47;96671.19;;;8.05;50.43
57594;BME280;43423;46.510;6.686;2023-04-06T06:40:13;96661.75;;;7.88;52.20
57594;BME280;43423;46.510;6.686;2023-04-06T06:42:41;96672.72;;;8.43;49.72
57594;BME280;43423;46.510;6.686;2023-04-06T06:45:08;96674.00;;;8.84;48.67
57594;BME280;43423;46.510;6.686;2023-04-06T06:47:34;96678.81;;;9.08;47.84
57594;BME280;43423;46.510;6.686;2023-04-06T06:50:00;96677.94;;;9.02;48.04
57594;BME280;43423;46.510;6.686;2023-04-06T06:52:25;96674.81;;;8.66;49.61
57594;BME280;43423;46.510;6.686;2023-04-06T06:54:51;96677.09;;;9.19;49.40
57594;BME280;43423;46.510;6.686;2023-04-06T06:57:16;96681.78;;;9.28;49.02
57594;BME280;43423;46.510;6.686;2023-04-06T06:59:42;96676.50;;;8.64;50.80
57594;BME280;43423;46.510;6.686;2023-04-06T07:02:07;96682.47;;;9.05;50.85
57594;BME280;43423;46.510;6.686;2023-04-06T07:04:33;96668.47;;;10.31;47.21
57594;BME280;43423;46.510;6.686;2023-04-06T07:06:58;96674.56;;;10.65;46.31
57594;BME280;43423;46.510;6.686;2023-04-06T07:09:25;96676.38;;;10.98;45.97
57594;BME280;43423;46.510;6.686;2023-04-06T07:11:51;96678.03;;;9.07;50.75
57594;BME280;43423;46.510;6.686;2023-04-06T07:14:17;96683.34;;;8.59;52.25
57594;BME280;43423;46.510;6.686;2023-04-06T07:16:42;96679.72;;;8.35;52.10
57594;BME280;43423;46.510;6.686;2023-04-06T07:19:10;96680.63;;;8.32;53.15
57594;BME280;43423;46.510;6.686;2023-04-06T07:21:36;96687.88;;;7.62;55.35
57594;BME280;43423;46.510;6.686;2023-04-06T07:24:02;96689.59;;;7.96;54.48
57594;BME280;43423;46.510;6.686;2023-04-06T07:26:27;96693.91;;;7.47;55.46
57594;BME280;43423;46.510;6.686;2023-04-06T07:28:53;96683.06;;;7.84;55.28
57594;BME280;43423;46.510;6.686;2023-04-06T07:31:18;96685.78;;;8.11;54.56
57594;BME280;43423;46.510;6.686;2023-04-06T07:33:44;96687.94;;;8.07;52.72
57594;BME280;43423;46.510;6.686;2023-04-06T07:36:10;96693.09;;;7.96;52.64
57594;BME280;43423;46.510;6.686;2023-04-06T07:38:35;96688.59;;;7.44;54.32
57594;BME280;43423;46.510;6.686;2023-04-06T07:41:01;96698.41;;;7.32;54.89
57594;BME280;43423;46.510;6.686;2023-04-06T07:43:29;96694.72;;;7.17;55.06
57594;BME280;43423;46.510;6.686;2023-04-06T07:45:56;96695.69;;;7.32;55.61
57594;BME280;43423;46.510;6.686;2023-04-06T07:48:23;96693.25;;;8.02;52.91
57594;BME280;43423;46.510;6.686;2023-04-06T07:50:48;96683.59;;;8.89;50.30
57594;BME280;43423;46.510;6.686;2023-04-06T07:53:14;96688.72;;;8.35;50.15
57594;BME280;43423;46.510;6.686;2023-04-06T07:55:40;96695.34;;;7.79;51.61
57594;BME280;43423;46.510;6.686;2023-04-06T07:58:05;96698.16;;;7.48;54.20
57594;BME280;43423;46.510;6.686;2023-04-06T08:00:31;96699.03;;;6.96;55.25
57594;BME280;43423;46.510;6.686;2023-04-06T08:02:56;96695.59;;;7.05;54.28
57594;BME280;43423;46.510;6.686;2023-04-06T08:05:22;96704.09;;;7.07;56.39
57594;BME280;43423;46.510;6.686;2023-04-06T08:07:47;96701.75;;;7.27;55.60
57594;BME280;43423;46.510;6.686;2023-04-06T08:10:13;96696.81;;;7.44;54.69
57594;BME280;43423;46.510;6.686;2023-04-06T08:12:39;96690.22;;;7.32;54.91
57594;BME280;43423;46.510;6.686;2023-04-06T08:15:05;96690.13;;;7.45;54.64
57594;BME280;43423;46.510;6.686;2023-04-06T08:17:34;96687.47;;;7.32;56.13
57594;BME280;43423;46.510;6.686;2023-04-06T08:20:00;96688.94;;;7.73;55.88
57594;BME280;43423;46.510;6.686;2023-04-06T08:22:26;96686.91;;;7.37;56.01
57594;BME280;43423;46.510;6.686;2023-04-06T08:24:51;96692.66;;;7.39;55.51
57594;BME280;43423;46.510;6.686;2023-04-06T08:27:17;96691.75;;;7.02;56.74
57594;BME280;43423;46.510;6.686;2023-04-06T08:29:43;96701.13;;;7.23;56.57
57594;BME280;43423;46.510;6.686;2023-04-06T08:32:08;96699.56;;;7.13;58.21
57594;BME280;43423;46.510;6.686;2023-04-06T08:34:34;96695.59;;;7.05;58.27
57594;BME280;43423;46.510;6.686;2023-04-06T08:36:59;96700.50;;;7.19;57.96
57594;BME280;43423;46.510;6.686;2023-04-06T08:39:25;96697.09;;;7.06;57.47
57594;BME280;43423;46.510;6.686;2023-04-06T08:41:53;96692.59;;;6.81;58.39
57594;BME280;43423;46.510;6.686;2023-04-06T08:44:22;96686.44;;;6.98;58.39
57594;BME280;43423;46.510;6.686;2023-04-06T08:46:48;96690.13;;;7.45;58.35
57594;BME280;43423;46.510;6.686;2023-04-06T08:49:14;96686.63;;;7.44;57.95
57594;BME280;43423;46.510;6.686;2023-04-06T08:51:41;96691.47;;;7.49;57.81
57594;BME280;43423;46.510;6.686;2023-04-06T08:54:07;96688.38;;;7.97;56.19
57594;BME280;43423;46.510;6.686;2023-04-06T08:56:35;96694.00;;;8.21;55.18
57594;BME280;43423;46.510;6.686;2023-04-06T08:59:02;96689.41;;;7.72;55.71
57594;BME280;43423;46.510;6.686;2023-04-06T09:01:29;96693.22;;;7.74;55.99
57594;BME280;43423;46.510;6.686;2023-04-06T09:03:58;96690.81;;;7.27;56.51
57594;BME280;43423;46.510;6.686;2023-04-06T09:06:25;96690.91;;;7.73;56.90
57594;BME280;43423;46.510;6.686;2023-04-06T09:08:52;96688.63;;;7.53;56.72
57594;BME280;43423;46.510;6.686;2023-04-06T09:11:18;96700.31;;;7.53;56.53
57594;BME280;43423;46.510;6.686;2023-04-06T09:13:52;96693.31;;;7.52;56.82
57594;BME280;43423;46.510;6.686;2023-04-06T09:16:18;96693.94;;;7.66;57.03
57594;BME280;43423;46.510;6.686;2023-04-06T09:18:44;96687.19;;;7.39;57.53
57594;BME280;43423;46.510;6.686;2023-04-06T09:21:10;96697.59;;;7.53;57.09
57594;BME280;43423;46.510;6.686;2023-04-06T09:23:37;96690.72;;;7.49;57.58
57594;BME280;43423;46.510;6.686;2023-04-06T09:26:08;96696.94;;;7.40;57.47
57594;BME280;43423;46.510;6.686;2023-04-06T09:28:45;96690.28;;;7.50;57.29
57594;BME280;43423;46.510;6.686;2023-04-06T09:31:15;96684.69;;;7.81;57.55
57594;BME280;43423;46.510;6.686;2023-04-06T09:33:43;96694.69;;;7.57;57.37
57594;BME280;43423;46.510;6.686;2023-04-06T09:36:08;96688.06;;;7.86;57.97
57594;BME280;43423;46.510;6.686;2023-04-06T09:38:50;96685.03;;;7.93;58.25
57594;BME280;43423;46.510;6.686;2023-04-06T09:41:21;96690.22;;;8.27;57.63
57594;BME280;43423;46.510;6.686;2023-04-06T09:43:47;96682.59;;;8.04;56.24
57594;BME280;43423;46.510;6.686;2023-04-06T09:46:13;96680.03;;;7.91;56.59
57594;BME280;43423;46.510;6.686;2023-04-06T09:48:40;96682.41;;;7.71;57.09
57594;BME280;43423;46.510;6.686;2023-04-06T09:51:06;96687.75;;;7.74;58.28
57594;BME280;43423;46.510;6.686;2023-04-06T09:53:37;96683.00;;;7.66;57.47
57594;BME280;43423;46.510;6.686;2023-04-06T09:56:06;96686.09;;;8.13;59.06
57594;BME280;43423;46.510;6.686;2023-04-06T09:58:37;96692.19;;;8.27;56.94
57594;BME280;43423;46.510;6.686;2023-04-06T10:01:10;96683.97;;;8.18;56.96
57594;BME280;43423;46.510;6.686;2023-04-06T10:06:33;96688.56;;;8.48;53.98
57594;BME280;43423;46.510;6.686;2023-04-06T10:09:02;96691.59;;;8.50;55.03
57594;BME280;43423;46.510;6.686;2023-04-06T10:11:30;96691.44;;;8.35;52.15
57594;BME280;43423;46.510;6.686;2023-04-06T10:13:56;96690.69;;;8.44;54.06
57594;BME280;43423;46.510;6.686;2023-04-06T10:16:22;96682.16;;;8.15;53.24
57594;BME280;43423;46.510;6.686;2023-04-06T10:18:53;96693.41;;;8.17;52.22
57594;BME280;43423;46.510;6.686;2023-04-06T10:21:23;96687.06;;;8.38;52.19
57594;BME280;43423;46.510;6.686;2023-04-06T10:23:54;96689.59;;;8.69;50.67
57594;BME280;43423;46.510;6.686;2023-04-06T10:26:23;96684.97;;;8.84;50.62
57594;BME280;43423;46.510;6.686;2023-04-06T10:28:49;96682.44;;;9.14;52.27
57594;BME280;43423;46.510;6.686;2023-04-06T10:31:24;96687.78;;;9.08;50.47
57594;BME280;43423;46.510;6.686;2023-04-06T10:33:54;96683.72;;;9.04;49.83
57594;BME280;43423;46.510;6.686;2023-04-06T10:36:25;96682.22;;;8.93;47.60
57594;BME280;43423;46.510;6.686;2023-04-06T10:38:58;96687.13;;;9.22;49.04
57594;BME280;43423;46.510;6.686;2023-04-06T10:41:52;96681.81;;;9.19;51.04
57594;BME280;43423;46.510;6.686;2023-04-06T10:44:24;96684.50;;;8.95;51.50
57594;BME280;43423;46.510;6.686;2023-04-06T10:46:57;96688.06;;;8.68;52.80
57594;BME280;43423;46.510;6.686;2023-04-06T10:49:24;96676.91;;;8.81;51.11
57594;BME280;43423;46.510;6.686;2023-04-06T10:51:54;96680.69;;;8.92;51.69
57594;BME280;43423;46.510;6.686;2023-04-06T10:54:24;96678.44;;;8.82;52.92
57594;BME280;43423;46.510;6.686;2023-04-06T10:56:50;96684.28;;;9.08;51.46
57594;BME280;43423;46.510;6.686;2023-04-06T10:59:20;96677.69;;;9.23;49.74
57594;BME280;43423;46.510;6.686;2023-04-06T11:01:46;96682.28;;;9.17;47.53
57594;BME280;43423;46.510;6.686;2023-04-06T11:04:19;96670.91;;;9.43;47.98
57594;BME280;43423;46.510;6.686;2023-04-06T11:06:47;96673.69;;;9.34;47.24
57594;BME280;43423;46.510;6.686;2023-04-06T11:09:27;96669.44;;;9.23;45.02
57594;BME280;43423;46.510;6.686;2023-04-06T11:11:53;96680.63;;;9.44;44.73
57594;BME280;43423;46.510;6.686;2023-04-06T11:14:19;96671.50;;;9.38;43.29
57594;BME280;43423;46.510;6.686;2023-04-06T11:16:46;96668.53;;;9.27;39.52
57594;BME280;43423;46.510;6.686;2023-04-06T11:19:14;96671.03;;;9.48;41.18
57594;BME280;43423;46.510;6.686;2023-04-06T11:21:44;96666.72;;;9.57;41.14
57594;BME280;43423;46.510;6.686;2023-04-06T11:24:22;96666.56;;;9.99;42.11
57594;BME280;43423;46.510;6.686;2023-04-06T11:26:49;96657.34;;;9.87;37.86
57594;BME280;43423;46.510;6.686;2023-04-06T11:29:20;96664.59;;;9.75;38.21
57594;BME280;43423;46.510;6.686;2023-04-06T11:31:51;96655.00;;;9.71;39.91
57594;BME280;43423;46.510;6.686;2023-04-06T11:34:19;96660.13;;;10.26;40.67
57594;BME280;43423;46.510;6.686;2023-04-06T11:36:46;96649.63;;;10.00;37.97
57594;BME280;43423;46.510;6.686;2023-04-06T11:39:22;96650.53;;;10.21;38.34
57594;BME280;43423;46.510;6.686;2023-04-06T11:41:52;96646.50;;;10.31;39.26
57594;BME280;43423;46.510;6.686;2023-04-06T11:44:34;96652.78;;;9.84;36.81
57594;BME280;43423;46.510;6.686;2023-04-06T11:47:01;96640.06;;;9.96;37.19
57594;BME280;43423;46.510;6.686;2023-04-06T11:49:28;96644.03;;;10.33;38.72
57594;BME280;43423;46.510;6.686;2023-04-06T11:51:54;96643.97;;;10.43;38.09
57594;BME280;43423;46.510;6.686;2023-04-06T11:54:36;96636.94;;;10.18;37.52
57594;BME280;43423;46.510;6.686;2023-04-06T11:57:07;96630.91;;;10.14;36.90
57594;BME280;43423;46.510;6.686;2023-04-06T11:59:33;96635.50;;;10.31;36.87
57594;BME280;43423;46.510;6.686;2023-04-06T12:01:59;96637.59;;;10.37;38.10
57594;BME280;43423;46.510;6.686;2023-04-06T12:04:25;96635.69;;;10.28;38.75
57594;BME280;43423;46.510;6.686;2023-04-06T12:06:50;96637.91;;;10.15;37.38
57594;BME280;43423;46.510;6.686;2023-04-06T12:09:17;96631.41;;;10.42;37.76
57594;BME280;43423;46.510;6.686;2023-04-06T12:11:43;96627.91;;;10.41;38.84
57594;BME280;43423;46.510;6.686;2023-04-06T12:14:08;96632.38;;;10.39;37.52
57594;BME280;43423;46.510;6.686;2023-04-06T12:16:34;96632.34;;;10.24;39.13
57594;BME280;43423;46.510;6.686;2023-04-06T12:19:01;96620.56;;;10.08;39.13
57594;BME280;43423;46.510;6.686;2023-04-06T12:21:35;96626.25;;;10.05;39.08
57594;BME280;43423;46.510;6.686;2023-04-06T12:24:06;96624.13;;;10.00;39.24
57594;BME280;43423;46.510;6.686;2023-04-06T12:26:32;96616.50;;;10.04;38.69
57594;BME280;43423;46.510;6.686;2023-04-06T12:28:59;96613.53;;;10.07;37.45
57594;BME280;43423;46.510;6.686;2023-04-06T12:31:32;96615.88;;;10.24;37.99
57594;BME280;43423;46.510;6.686;2023-04-06T12:33:58;96617.91;;;10.14;35.14
57594;BME280;43423;46.510;6.686;2023-04-06T12:36:24;96616.19;;;10.02;37.98
57594;BME280;43423;46.510;6.686;2023-04-06T12:38:50;96608.69;;;10.41;36.39
57594;BME280;43423;46.510;6.686;2023-04-06T12:41:17;96614.00;;;10.59;33.17
57594;BME280;43423;46.510;6.686;2023-04-06T12:43:44;96615.03;;;10.92;32.17
57594;BME280;43423;46.510;6.686;2023-04-06T12:46:10;96612.94;;;10.86;32.13
57594;BME280;43423;46.510;6.686;2023-04-06T12:48:36;96621.78;;;10.61;33.62
57594;BME280;43423;46.510;6.686;2023-04-06T12:51:04;96608.28;;;10.93;34.44
57594;BME280;43423;46.510;6.686;2023-04-06T12:53:32;96618.31;;;11.45;32.54
57594;BME280;43423;46.510;6.686;2023-04-06T12:55:58;96616.50;;;11.42;32.10
57594;BME280;43423;46.510;6.686;2023-04-06T12:58:24;96613.81;;;11.13;32.47
57594;BME280;43423;46.510;6.686;2023-04-06T13:00:53;96609.34;;;11.30;31.96
57594;BME280;43423;46.510;6.686;2023-04-06T13:03:20;96612.50;;;11.23;32.29
57594;BME280;43423;46.510;6.686;2023-04-06T13:05:47;96608.03;;;11.11;32.34
57594;BME280;43423;46.510;6.686;2023-04-06T13:08:13;96606.00;;;11.26;34.90
57594;BME280;43423;46.510;6.686;2023-04-06T13:10:50;96609.06;;;11.13;32.31